»·PEaware :: N1925Q 67L-L77

N1925Q :: 67L-L77

FLIGHT INFORMATION

Flight Status: Arrived
Operator: Privately registered:
United States
More flights under this callsign
Pilot: Michael D. (15839)
Aircraft: Unknown
(DA40)
More flights by this aircraft type
Origin: 67L Mesquite
United States
Destination: L77 Chiriaco Summit
United States
More flights between these airports :: More routes between these airports
Route: DIRCT
File this flight plan on PilotEdge
Remarks:
Altitude:
(Current/Filed)
8,500ft
Speed:
(Current/Filed)
140kts
Departed: 14-Jul-19 05:08 PM
Arrived: 14-Jul-19 06:19 PM
Distance/Time
Traveled:
207nm/1:11
Distance/Time
To Go:
Arrived

Flight Plot

Page will automatically refresh every two minutes.


Map Options




Map Legend


Flown Route
Filed Route
Departure Airport
Arrival Airport
Navaid (VOR, NDB)
Fix

Horizontal Profiles

Position Reports

Time Latitude Longitude Heading Altitude Ground
Speed
14-Jul-19 16:49 36.835439 -114.055928 204 1978ft 0kts
14-Jul-19 16:50 36.835439 -114.055928 204 1978ft 0kts
14-Jul-19 16:51 36.835439 -114.055928 204 1978ft 0kts
14-Jul-19 16:52 36.835439 -114.055928 204 1978ft 0kts
14-Jul-19 16:53 36.835439 -114.055928 204 1978ft 0kts
14-Jul-19 16:54 36.835439 -114.055928 204 1978ft 0kts
14-Jul-19 16:55 36.835439 -114.055928 204 1978ft 0kts
14-Jul-19 16:56 36.835439 -114.055928 204 1978ft 0kts
14-Jul-19 16:57 36.835439 -114.055928 204 1978ft 0kts
14-Jul-19 16:58 36.835439 -114.055928 204 1978ft 0kts
14-Jul-19 16:59 36.835439 -114.055928 204 1978ft 0kts
14-Jul-19 17:00 36.835443 -114.055926 205 1979ft 0kts
14-Jul-19 17:01 36.835439 -114.055928 205 1978ft 0kts
14-Jul-19 17:02 36.835439 -114.055928 205 1978ft 0kts
14-Jul-19 17:03 36.835439 -114.055928 205 1978ft 0kts
14-Jul-19 17:04 36.835073 -114.055942 141 1978ft 0kts
14-Jul-19 17:05 36.835826 -114.054953 26 1978ft 11kts
14-Jul-19 17:06 36.839221 -114.052548 36 1978ft 14kts
14-Jul-19 17:07 36.835822 -114.054000 208 1983ft 74kts
14-Jul-19 17:08 36.822229 -114.072390 240 2794ft 81kts
14-Jul-19 17:09 36.803787 -114.089006 208 3632ft 86kts
14-Jul-19 17:10 36.781542 -114.105114 218 4398ft 93kts
14-Jul-19 17:11 36.760576 -114.127326 216 5011ft 106kts
14-Jul-19 17:12 36.735220 -114.143849 211 5702ft 105kts
14-Jul-19 17:13 36.709862 -114.160510 210 6376ft 104kts
14-Jul-19 17:14 36.684326 -114.176887 212 7043ft 103kts
14-Jul-19 17:15 36.657760 -114.190900 204 7698ft 103kts
14-Jul-19 17:16 36.628074 -114.205210 204 8025ft 117kts
14-Jul-19 17:17 36.598108 -114.219372 204 8458ft 117kts
14-Jul-19 17:18 36.565270 -114.234949 205 8453ft 131kts
14-Jul-19 17:19 36.531100 -114.251418 204 8434ft 131kts
14-Jul-19 17:20 36.497647 -114.267347 204 8504ft 126kts
14-Jul-19 17:21 36.464538 -114.283139 205 8497ft 129kts
14-Jul-19 17:23 36.430899 -114.299420 204 8495ft 129kts
14-Jul-19 17:24 36.397367 -114.315503 205 8492ft 129kts
14-Jul-19 17:25 36.363724 -114.331680 205 8497ft 129kts
14-Jul-19 17:26 36.330114 -114.347776 205 8493ft 129kts
14-Jul-19 17:27 36.296505 -114.363863 205 8499ft 129kts
14-Jul-19 17:28 36.262898 -114.379768 205 8501ft 129kts
14-Jul-19 17:29 36.229184 -114.395763 205 8493ft 129kts
14-Jul-19 17:30 36.195383 -114.411484 205 8502ft 130kts
14-Jul-19 17:31 36.161421 -114.427511 204 8506ft 130kts
14-Jul-19 17:32 36.130750 -114.442059 205 8499ft 129kts
14-Jul-19 17:33 35.839298 -114.577956 204 8495ft 128kts
14-Jul-19 17:34 35.806080 -114.594464 205 8500ft 129kts
14-Jul-19 17:35 35.604275 -114.717896 209 8510ft 128kts
14-Jul-19 17:36 35.345016 -114.890496 207 8388ft 128kts
14-Jul-19 17:37 35.102591 -115.035051 202 8411ft 126kts
14-Jul-19 17:38 35.070329 -115.051789 202 8414ft 125kts
14-Jul-19 17:39 35.038124 -115.068001 202 8418ft 125kts
14-Jul-19 17:40 35.005777 -115.083564 202 8423ft 125kts
14-Jul-19 17:41 34.972908 -115.098655 202 8427ft 126kts
14-Jul-19 17:42 34.940320 -115.113148 202 8513ft 127kts
14-Jul-19 17:42 34.912327 -115.125437 202 8514ft 129kts
14-Jul-19 17:44 34.872348 -115.142868 203 8518ft 131kts
14-Jul-19 17:45 34.837730 -115.158019 202 8518ft 132kts
14-Jul-19 17:45 34.808876 -115.170460 203 8516ft 132kts
14-Jul-19 17:46 34.774121 -115.185409 202 8518ft 132kts
14-Jul-19 17:48 34.733382 -115.202860 202 8518ft 132kts
14-Jul-19 17:48 34.704349 -115.215207 203 8518ft 132kts
14-Jul-19 17:49 34.669519 -115.229934 202 8523ft 132kts
14-Jul-19 17:50 34.634689 -115.244728 202 8532ft 133kts
14-Jul-19 17:51 34.599590 -115.259559 202 8545ft 133kts
14-Jul-19 17:52 34.564352 -115.274544 202 8562ft 134kts
14-Jul-19 17:53 34.528910 -115.289719 203 8574ft 135kts
14-Jul-19 17:54 34.493372 -115.304962 202 8576ft 136kts
14-Jul-19 17:55 34.456197 -115.321103 202 8364ft 138kts
14-Jul-19 17:56 34.418207 -115.338313 204 7904ft 149kts
14-Jul-19 17:57 34.379485 -115.357401 204 7403ft 151kts
14-Jul-19 17:58 34.340313 -115.376972 204 6904ft 153kts
14-Jul-19 17:59 34.300855 -115.396986 204 6433ft 152kts
14-Jul-19 18:00 34.263489 -115.416171 204 6427ft 143kts
14-Jul-19 18:01 34.226787 -115.434975 203 6440ft 143kts
14-Jul-19 18:02 34.189852 -115.453536 203 6436ft 143kts
14-Jul-19 18:03 34.152968 -115.472077 203 6435ft 143kts
14-Jul-19 18:04 34.116131 -115.490584 204 6435ft 143kts
14-Jul-19 18:05 34.079305 -115.509075 204 6435ft 143kts
14-Jul-19 18:06 34.042037 -115.527735 204 6393ft 146kts
14-Jul-19 18:07 34.004331 -115.546652 204 6343ft 148kts
14-Jul-19 18:08 33.966675 -115.566487 201 6290ft 142kts
14-Jul-19 18:09 33.930825 -115.583485 200 6244ft 136kts
14-Jul-19 18:10 33.895635 -115.599878 200 6225ft 134kts
14-Jul-19 18:11 33.860656 -115.616146 200 6226ft 134kts
14-Jul-19 18:12 33.825810 -115.632395 199 6226ft 134kts
14-Jul-19 18:13 33.791019 -115.648629 199 6225ft 134kts
14-Jul-19 18:14 33.756062 -115.664909 199 6225ft 134kts
14-Jul-19 18:15 33.722416 -115.676599 192 4481ft 118kts
14-Jul-19 18:16 33.695406 -115.685711 196 2946ft 91kts
14-Jul-19 18:17 33.675356 -115.694564 193 2220ft 66kts
14-Jul-19 18:18 33.664864 -115.709907 259 1696ft 40kts
14-Jul-19 18:19 33.663768 -115.716898 258 1708ft 15kts
14-Jul-19 18:20 33.663481 -115.718385 228 1709ft 0kts

Navigation Log

Ident Type
Flight plan parsing failed, navigation log unavailable